Latest Weather Observations for Colpoys Point

IDW60901

Issued at 5:01 pm WST Saturday 21 September 2019 (issued every 10 minutes, with the page automatically refreshed every 10 minutes)

About weather observations | Map of Perth area stations | Latest observations for Perth area | Other Formats
Station Details ID: 009255 Name: COLPOYS POINT Lat: -32.23 Lon: 115.70 Height: 3.0 m
Data from the previous 72 hours. | See also: Recent months for locations in Western Australia
Date/Time
WST
Temp
°C
App
Temp
°C
Dew
Point
°C
Rel
Hum
%
Delta-T
°C
Wind Press
QNH
hPa
Press
MSL
hPa
Rain since
9am
mm
Dir  Spd
km/h
Gust
km/h
Spd
kts
Gust
kts
21/05:00pm - - - - - SSW 30 35 16 19 - - -
21/04:30pm - - - - - SSW 30 35 16 19 - - -
21/04:00pm - - - - - SSW 28 35 15 19 - - -
21/03:30pm - - - - - SSW 28 35 15 19 - - -
21/03:00pm - - - - - SSW 28 35 15 19 - - -
21/02:30pm - - - - - SSW 30 33 16 18 - - -
21/02:00pm - - - - - SSW 28 35 15 19 - - -
21/01:30pm - - - - - SSW 28 33 15 18 - - -
21/01:00pm - - - - - SW 24 32 13 17 - - -
21/12:30pm - - - - - SSW 20 26 11 14 - - -
21/12:00pm - - - - - SSW 19 26 10 14 - - -
21/11:30am - - - - - SSW 19 24 10 13 - - -
21/11:00am - - - - - SSE 7 13 4 7 - - -
21/10:30am - - - - - SSE 7 9 4 5 - - -
21/10:00am - - - - - SE 9 13 5 7 - - -
21/09:30am - - - - - SE 11 15 6 8 - - -
21/09:00am - - - - - SE 13 15 7 8 - - -
21/08:30am - - - - - ESE 11 15 6 8 - - -
21/08:00am - - - - - ESE 13 15 7 8 - - -
21/07:30am - - - - - SE 13 15 7 8 - - -
21/07:00am - - - - - SE 13 17 7 9 - - -
21/06:30am - - - - - SE 15 19 8 10 - - -
21/06:00am - - - - - SE 15 17 8 9 - - -
21/05:30am - - - - - SE 15 19 8 10 - - -
21/05:00am - - - - - SE 13 17 7 9 - - -
21/04:30am - - - - - SE 15 19 8 10 - - -
21/04:00am - - - - - ESE 17 24 9 13 - - -
21/03:30am - - - - - SE 17 19 9 10 - - -
21/03:00am - - - - - SE 17 20 9 11 - - -
21/02:30am - - - - - SE 20 26 11 14 - - -
21/02:00am - - - - - SE 22 28 12 15 - - -
21/01:30am - - - - - SSE 24 28 13 15 - - -
21/01:00am - - - - - SSE 20 26 11 14 - - -
21/12:30am - - - - - SSE 24 28 13 15 - - -
21/12:00am - - - - - SSE 24 26 13 14 - - -
 
Date/Time
WST
Temp
°C
App
Temp
°C
Dew
Point
°C
Rel
Hum
%
Delta-T
°C
Wind Press
QNH
hPa
Press
MSL
hPa
Rain since
9am
mm
Dir  Spd
km/h
Gust
km/h
Spd
kts
Gust
kts
20/11:30pm - - - - - SSE 28 32 15 17 - - -
20/11:00pm - - - - - SSE 28 33 15 18 - - -
20/10:30pm - - - - - SSE 28 33 15 18 - - -
20/10:00pm - - - - - SSE 30 35 16 19 - - -
20/09:30pm - - - - - S 28 33 15 18 - - -
20/09:00pm - - - - - S 32 35 17 19 - - -
20/08:30pm - - - - - SSE 32 39 17 21 - - -
20/08:00pm - - - - - S 32 35 17 19 - - -
20/07:30pm - - - - - S 30 35 16 19 - - -
20/07:00pm - - - - - S 32 35 17 19 - - -
20/06:30pm - - - - - SSW 32 35 17 19 - - -
20/06:00pm - - - - - SSW 30 37 16 20 - - -
20/05:30pm - - - - - SSW 32 37 17 20 - - -
20/05:00pm - - - - - SSW 30 35 16 19 - - -
20/04:30pm - - - - - SSW 30 33 16 18 - - -
20/04:00pm - - - - - SSW 28 35 15 19 - - -
20/03:30pm - - - - - SSW 30 35 16 19 - - -
20/03:00pm - - - - - SW 26 33 14 18 - - -
20/02:30pm - - - - - SW 24 32 13 17 - - -
20/02:00pm - - - - - SW 26 32 14 17 - - -
20/01:30pm - - - - - SSW 26 32 14 17 - - -
20/01:00pm - - - - - SSW 26 32 14 17 - - -
20/12:30pm - - - - - SSW 24 30 13 16 - - -
20/12:00pm - - - - - SSW 26 30 14 16 - - -
20/11:30am - - - - - SSW 24 32 13 17 - - -
20/11:00am - - - - - S 26 32 14 17 - - -
20/10:30am - - - - - SSE 22 30 12 16 - - -
20/10:00am - - - - - SSE 20 28 11 15 - - -
20/09:30am - - - - - SE 15 20 8 11 - - -
20/09:00am - - - - - SE 20 26 11 14 - - -
20/08:30am - - - - - SE 15 19 8 10 - - -
20/08:00am - - - - - SE 20 24 11 13 - - -
20/07:30am - - - - - SE 20 26 11 14 - - -
20/07:00am - - - - - SE 20 22 11 12 - - -
20/06:30am - - - - - SE 19 22 10 12 - - -
20/06:00am - - - - - ESE 17 19 9 10 - - -
20/05:30am - - - - - ESE 17 19 9 10 - - -
20/05:00am - - - - - SE 17 19 9 10 - - -
20/04:30am - - - - - SE 17 19 9 10 - - -
20/04:00am - - - - - SE 20 24 11 13 - - -
20/03:30am - - - - - SE 19 22 10 12 - - -
20/03:00am - - - - - ESE 17 20 9 11 - - -
20/02:30am - - - - - SE 20 24 11 13 - - -
20/02:00am - - - - - SE 17 20 9 11 - - -
20/01:30am - - - - - SE 19 24 10 13 - - -
20/01:00am - - - - - SE 24 30 13 16 - - -
20/12:30am - - - - - SE 28 32 15 17 - - -
20/12:00am - - - - - SE 24 28 13 15 - - -
 
Date/Time
WST
Temp
°C
App
Temp
°C
Dew
Point
°C
Rel
Hum
%
Delta-T
°C
Wind Press
QNH
hPa
Press
MSL
hPa
Rain since
9am
mm
Dir  Spd
km/h
Gust
km/h
Spd
kts
Gust
kts
19/11:30pm - - - - - SE 24 28 13 15 - - -
19/11:00pm - - - - - SSE 28 32 15 17 - - -
19/10:30pm - - - - - SSE 30 32 16 17 - - -
19/10:00pm - - - - - SSE 32 35 17 19 - - -
19/09:30pm - - - - - SSE 32 39 17 21 - - -
19/09:00pm - - - - - SSE 30 33 16 18 - - -
19/08:30pm - - - - - SSE 35 43 19 23 - - -
19/08:00pm - - - - - SSE 28 32 15 17 - - -
19/07:30pm - - - - - S 32 41 17 22 - - -
19/07:00pm - - - - - S 35 39 19 21 - - -
19/06:30pm - - - - - SSW 35 43 19 23 - - -
19/06:00pm - - - - - SSW 35 43 19 23 - - -
19/05:30pm - - - - - SSW 35 46 19 25 - - -
19/05:00pm - - - - - SSW 39 48 21 26 - - -
19/04:30pm - - - - - SSW 41 50 22 27 - - -
19/04:00pm - - - - - SSW 41 50 22 27 - - -
19/03:30pm - - - - - SSW 43 50 23 27 - - -
19/03:00pm - - - - - S 39 54 21 29 - - -
19/02:30pm - - - - - S 39 48 21 26 - - -
19/02:00pm - - - - - SSW 43 50 23 27 - - -
19/01:30pm - - - - - SSW 41 50 22 27 - - -
19/01:00pm - - - - - SSW 39 50 21 27 - - -
19/12:30pm - - - - - SSW 41 52 22 28 - - -
19/12:00pm - - - - - SSW 43 52 23 28 - - -
19/11:30am - - - - - S 43 57 23 31 - - -
19/11:00am - - - - - S 39 48 21 26 - - -
19/10:30am - - - - - SSW 44 52 24 28 - - -
19/10:00am - - - - - SSW 43 57 23 31 - - -
19/09:48am - - - - - SSW 41 61 22 33 - - -
19/09:30am - - - - - SSW 41 50 22 27 - - -
19/09:28am - - - - - SSW 39 50 21 27 - - -
19/09:04am - - - - - S 48 74 26 40 - - -
19/09:00am - - - - - SSE 39 74 21 40 - - -
19/08:58am - - - - - SSE 33 59 18 32 - - -
19/08:49am - - - - - SSE 32 41 17 22 - - -
19/08:30am - - - - - S 39 50 21 27 - - -
19/08:03am - - - - - SSW 39 76 21 41 - - -
19/08:00am - - - - - SSW 39 52 21 28 - - -
19/07:30am - - - - - SSW 48 59 26 32 - - -
19/07:02am - - - - - SSW 43 69 23 37 - - -
19/07:00am - - - - - SSW 39 61 21 33 - - -
19/06:43am - - - - - SW 46 65 25 35 - - -
19/06:30am - - - - - SSW 46 59 25 32 - - -
19/06:04am - - - - - SW 43 65 23 35 - - -
19/06:00am - - - - - SW 35 54 19 29 - - -
19/05:43am - - - - - WSW 43 61 23 33 - - -
19/05:30am - - - - - SW 50 63 27 34 - - -
19/05:00am - - - - - SW 50 61 27 33 - - -
19/04:41am - - - - - SW 43 69 23 37 - - -
19/04:30am - - - - - SW 48 63 26 34 - - -
19/04:10am - - - - - SW 44 63 24 34 - - -
19/04:00am - - - - - SSW 48 59 26 32 - - -
19/03:33am - - - - - SW 43 63 23 34 - - -
19/03:30am - - - - - SW 43 57 23 31 - - -
19/03:00am - - - - - SW 39 70 21 38 - - -
19/02:58am - - - - - SW 35 67 19 36 - - -
19/02:30am - - - - - SW 43 56 23 30 - - -
19/02:00am - - - - - SW 50 61 27 33 - - -
19/01:30am - - - - - SW 43 56 23 30 - - -
19/01:00am - - - - - WSW 44 61 24 33 - - -
19/12:47am - - - - - SW 44 72 24 39 - - -
19/12:46am - - - - - SW 43 72 23 39 - - -
19/12:44am - - - - - SW 39 67 21 36 - - -
19/12:30am - - - - - SW 39 48 21 26 - - -
19/12:11am - - - - - SW 44 63 24 34 - - -
19/12:00am - - - - - SW 50 65 27 35 - - -
 
Date/Time
WST
Temp
°C
App
Temp
°C
Dew
Point
°C
Rel
Hum
%
Delta-T
°C
Wind Press
QNH
hPa
Press
MSL
hPa
Rain since
9am
mm
Dir  Spd
km/h
Gust
km/h
Spd
kts
Gust
kts
18/11:38pm - - - - - SW 50 69 27 37 - - -
18/11:30pm - - - - - SW 52 69 28 37 - - -
18/11:00pm - - - - - SW 52 63 28 34 - - -
18/10:30pm - - - - - SW 44 67 24 36 - - -
18/10:00pm - - - - - SW 50 63 27 34 - - -
18/09:30pm - - - - - SW 50 69 27 37 - - -
18/09:00pm - - - - - WSW 44 65 24 35 - - -
18/08:36pm - - - - - WSW 44 63 24 34 - - -
18/08:30pm - - - - - W 39 63 21 34 - - -
18/08:29pm - - - - - W 37 63 20 34 - - -
18/08:05pm - - - - - WNW 32 50 17 27 - - -
18/08:00pm - - - - - WNW 35 52 19 28 - - -
18/07:34pm - - - - - WNW 37 59 20 32 - - -
18/07:30pm - - - - - WNW 37 52 20 28 - - -
18/07:00pm - - - - - W 33 52 18 28 - - -
18/06:44pm - - - - - WNW 35 54 19 29 - - -
18/06:30pm - - - - - WNW 33 46 18 25 - - -
18/06:03pm - - - - - WNW 30 48 16 26 - - -
18/06:00pm - - - - - WNW 30 41 16 22 - - -
18/05:41pm - - - - - WNW 33 54 18 29 - - -
18/05:30pm - - - - - WNW 37 54 20 29 - - -

Latest Capital City Observations: Canberra | Sydney | Melbourne | Brisbane | Adelaide | Perth | Hobart | Darwin

Other formats

Comma delimited format used in spreadsheet applications
http://www.bom.gov.au/fwo/IDW60901/IDW60901.99255.axf

JavaScript Object Notation format (JSON) in row-major order
http://www.bom.gov.au/fwo/IDW60901/IDW60901.99255.json

Data quality

Most of these data are generated automatically and are frequently updated. Quality checks on data are not normally performed. It is possible for incorrect values to appear. Refer to information at About Latest Weather Observations and please check the disclaimer before using these data.